Time;durP1;ratioP1;P1;durP2;ratioP2;P2;SDS_P1;SDS_P2;PMS_P1;PMS_P2;Temp;Humidity;BMP_temperature;BMP_pressure;BME280_temperature;BME280_humidity;BME280_pressure;Samples;Min_cycle;Max_cycle;Signal;HPM_P1;HPM_P2
2022/08/20 00:02:11;;;;;;;28.00;25.38;;;;;;;;;;5029616;28;20390;-85
2022/08/20 00:04:37;;;;;;;28.20;25.73;;;;;;;;;;5028974;28;20392;-85
2022/08/20 00:07:03;;;;;;;28.73;26.13;;;;;;;;;;5012716;28;20469;-85
2022/08/20 00:09:29;;;;;;;28.33;25.73;;;;;;;;;;5012480;28;20428;-85
2022/08/20 00:11:56;;;;;;;31.75;28.65;;;;;;;;;;5012437;28;20905;-85
2022/08/20 00:14:22;;;;;;;28.25;25.50;;;;;;;;;;5012424;28;20754;-85
2022/08/20 00:16:49;;;;;;;27.77;25.25;;;;;;;;;;5012645;28;20862;-85
2022/08/20 00:19:15;;;;;;;27.77;25.30;;;;;;;;;;5012680;28;20381;-85
2022/08/20 00:21:41;;;;;;;27.23;24.83;;;;;;;;;;5012401;28;20377;-85
2022/08/20 00:24:07;;;;;;;27.10;24.73;;;;;;;;;;5028861;28;20478;-85
2022/08/20 00:26:33;;;;;;;29.80;26.92;;;;;;;;;;5030311;28;20474;-87
2022/08/20 00:28:59;;;;;;;28.92;26.23;;;;;;;;;;5029791;28;20898;-86
2022/08/20 00:31:25;;;;;;;28.30;25.77;;;;;;;;;;5030027;28;20480;-85
2022/08/20 00:33:52;;;;;;;29.25;26.55;;;;;;;;;;5030227;28;20458;-85
2022/08/20 00:36:18;;;;;;;31.95;28.75;;;;;;;;;;5030170;28;20379;-85
2022/08/20 00:38:45;;;;;;;30.25;27.35;;;;;;;;;;5029956;28;20470;-85
2022/08/20 00:41:13;;;;;;;30.27;27.20;;;;;;;;;;5031074;28;20390;-86
2022/08/20 00:43:40;;;;;;;30.33;27.47;;;;;;;;;;5031931;28;20484;-85
2022/08/20 00:46:10;;;;;;;30.70;27.80;;;;;;;;;;5031972;28;20477;-86
2022/08/20 00:48:38;;;;;;;30.92;28.00;;;;;;;;;;5031918;28;20422;-85
2022/08/20 00:51:07;;;;;;;31.43;28.30;;;;;;;;;;5032018;28;20407;-85
2022/08/20 00:53:34;;;;;;;31.58;28.48;;;;;;;;;;5031696;28;20872;-85
2022/08/20 00:56:00;;;;;;;30.98;27.83;;;;;;;;;;5031745;28;20379;-85
2022/08/20 00:58:27;;;;;;;31.15;27.98;;;;;;;;;;5032175;28;20371;-85
2022/08/20 01:00:53;;;;;;;32.03;28.80;;;;;;;;;;5031749;28;20443;-85
2022/08/20 01:03:20;;;;;;;31.88;28.77;;;;;;;;;;5031918;28;20766;-86
2022/08/20 01:05:48;;;;;;;34.00;30.58;;;;;;;;;;5031718;28;20383;-85
2022/08/20 01:08:15;;;;;;;35.65;31.98;;;;;;;;;;5032573;28;20402;-85
2022/08/20 01:10:43;;;;;;;32.60;29.50;;;;;;;;;;5033975;28;20986;-85
2022/08/20 01:13:11;;;;;;;31.40;28.27;;;;;;;;;;5035333;28;20514;-86
2022/08/20 01:15:41;;;;;;;33.28;29.95;;;;;;;;;;5035079;28;20391;-85
2022/08/20 01:18:09;;;;;;;30.42;27.63;;;;;;;;;;5035204;28;20445;-85
2022/08/20 01:21:02;;;;;;;32.83;29.63;;;;;;;;;;5035065;28;20743;-85
2022/08/20 01:24:05;;;;;;;30.25;27.35;;;;;;;;;;5032371;28;20395;-85
2022/08/20 01:26:35;;;;;;;29.35;26.60;;;;;;;;;;4973791;28;20866;-85
2022/08/20 01:29:01;;;;;;;29.42;26.60;;;;;;;;;;5025095;28;20390;-86
2022/08/20 01:31:28;;;;;;;31.52;28.35;;;;;;;;;;5020532;28;20409;-85
2022/08/20 01:33:56;;;;;;;29.17;26.48;;;;;;;;;;5019322;28;20414;-85
2022/08/20 01:36:26;;;;;;;28.90;26.00;;;;;;;;;;5032051;28;20395;-86
2022/08/20 01:38:52;;;;;;;29.17;26.52;;;;;;;;;;5032709;28;20375;-85
2022/08/20 01:41:21;;;;;;;31.20;28.20;;;;;;;;;;5024705;28;20402;-85
2022/08/20 01:43:49;;;;;;;31.55;28.42;;;;;;;;;;5033705;28;20387;-85
2022/08/20 01:46:16;;;;;;;31.58;28.52;;;;;;;;;;5034718;28;20425;-86
2022/08/20 01:48:42;;;;;;;29.07;26.37;;;;;;;;;;5033302;28;20876;-85
2022/08/20 01:51:19;;;;;;;29.48;26.58;;;;;;;;;;5033703;28;20411;-85
2022/08/20 01:53:47;;;;;;;31.48;28.27;;;;;;;;;;5034300;28;20387;-85
2022/08/20 01:56:15;;;;;;;30.13;27.23;;;;;;;;;;5033262;28;20372;-86
2022/08/20 01:58:43;;;;;;;29.65;26.80;;;;;;;;;;5024189;28;20377;-85
2022/08/20 02:01:19;;;;;;;28.98;26.23;;;;;;;;;;5014598;28;20470;-85
2022/08/20 02:03:45;;;;;;;30.67;27.58;;;;;;;;;;5014716;28;20431;-85
2022/08/20 02:06:11;;;;;;;30.98;28.05;;;;;;;;;;5017822;28;20387;-85
2022/08/20 02:08:37;;;;;;;31.57;28.27;;;;;;;;;;5014349;28;20385;-85
2022/08/20 02:11:03;;;;;;;29.40;26.58;;;;;;;;;;5014347;28;20408;-85
2022/08/20 02:13:29;;;;;;;29.83;27.02;;;;;;;;;;5014237;28;20739;-85
2022/08/20 02:15:55;;;;;;;29.17;26.48;;;;;;;;;;5014446;28;20443;-85
2022/08/20 02:18:21;;;;;;;30.65;27.75;;;;;;;;;;5018773;28;20374;-85
2022/08/20 02:20:47;;;;;;;29.00;26.30;;;;;;;;;;5033088;28;20860;-85
2022/08/20 02:23:15;;;;;;;28.40;25.77;;;;;;;;;;5017626;28;20424;-86
2022/08/20 02:25:41;;;;;;;28.30;25.70;;;;;;;;;;5014215;28;20381;-86
2022/08/20 02:28:09;;;;;;;29.35;26.55;;;;;;;;;;5024902;28;20407;-85
2022/08/20 02:30:38;;;;;;;28.85;26.27;;;;;;;;;;5016330;28;20412;-85
2022/08/20 02:33:05;;;;;;;27.10;24.52;;;;;;;;;;5013997;28;20385;-86
2022/08/20 02:35:31;;;;;;;29.17;26.30;;;;;;;;;;5029244;28;20882;-85
2022/08/20 02:37:57;;;;;;;27.00;24.52;;;;;;;;;;5025849;28;20379;-85
2022/08/20 02:40:25;;;;;;;28.23;25.60;;;;;;;;;;5028405;28;20385;-85
2022/08/20 02:42:51;;;;;;;28.25;25.73;;;;;;;;;;5023534;28;20389;-86
2022/08/20 02:45:18;;;;;;;29.15;26.27;;;;;;;;;;5013812;28;20412;-85
2022/08/20 02:47:44;;;;;;;27.80;25.13;;;;;;;;;;5017605;28;20420;-85
2022/08/20 02:50:13;;;;;;;27.27;24.83;;;;;;;;;;5028372;28;20398;-85
2022/08/20 02:52:39;;;;;;;25.85;23.38;;;;;;;;;;5013856;28;20381;-85
2022/08/20 02:55:05;;;;;;;25.73;23.27;;;;;;;;;;5018268;28;20404;-86
2022/08/20 02:57:32;;;;;;;24.90;22.77;;;;;;;;;;5010231;28;20414;-85
2022/08/20 02:59:58;;;;;;;26.35;23.95;;;;;;;;;;5013800;28;20894;-85
2022/08/20 03:02:24;;;;;;;25.23;22.95;;;;;;;;;;5013655;28;20388;-86
2022/08/20 03:04:50;;;;;;;25.70;23.55;;;;;;;;;;5013537;28;20464;-85
2022/08/20 03:07:16;;;;;;;26.70;24.27;;;;;;;;;;5013478;28;20412;-86
2022/08/20 03:09:42;;;;;;;27.83;25.10;;;;;;;;;;5013561;28;20384;-85
2022/08/20 03:12:08;;;;;;;28.05;25.42;;;;;;;;;;5013373;28;20755;-86
2022/08/20 03:14:35;;;;;;;29.33;26.63;;;;;;;;;;5025209;28;20821;-85
2022/08/20 03:17:01;;;;;;;27.67;24.95;;;;;;;;;;5025945;28;20377;-86
2022/08/20 03:19:28;;;;;;;27.87;25.23;;;;;;;;;;5022637;28;20397;-85
2022/08/20 03:21:54;;;;;;;27.55;24.95;;;;;;;;;;5027242;28;20950;-85
2022/08/20 03:24:21;;;;;;;29.95;26.95;;;;;;;;;;5013534;28;20389;-85
2022/08/20 03:26:47;;;;;;;30.60;27.70;;;;;;;;;;5013268;28;20428;-85
2022/08/20 03:29:13;;;;;;;28.67;25.92;;;;;;;;;;5013243;28;20381;-85
2022/08/20 03:31:39;;;;;;;30.75;27.60;;;;;;;;;;5025981;28;20409;-85
2022/08/20 03:34:05;;;;;;;34.83;31.10;;;;;;;;;;5033127;28;20423;-85
2022/08/20 03:36:31;;;;;;;39.92;33.53;;;;;;;;;;5032347;28;20385;-84
2022/08/20 03:38:58;;;;;;;41.10;34.65;;;;;;;;;;5032832;28;20462;-84
2022/08/20 03:41:24;;;;;;;45.22;36.83;;;;;;;;;;5031877;28;20399;-85
2022/08/20 03:43:50;;;;;;;46.55;36.78;;;;;;;;;;5014572;28;20464;-85
2022/08/20 03:46:16;;;;;;;47.67;37.20;;;;;;;;;;5012839;28;20430;-85
2022/08/20 03:48:42;;;;;;;48.45;36.72;;;;;;;;;;5012851;28;20385;-84
2022/08/20 03:51:08;;;;;;;44.85;36.08;;;;;;;;;;5016804;28;20412;-85
2022/08/20 03:53:35;;;;;;;45.60;36.22;;;;;;;;;;5016541;28;20412;-85
2022/08/20 03:56:03;;;;;;;47.13;37.03;;;;;;;;;;5012594;28;20408;-84
2022/08/20 03:58:30;;;;;;;49.33;37.57;;;;;;;;;;5012855;28;20377;-85
2022/08/20 04:00:56;;;;;;;52.40;38.58;;;;;;;;;;5013183;28;20847;-85
2022/08/20 04:03:23;;;;;;;49.78;36.88;;;;;;;;;;5012801;28;20901;-84
2022/08/20 04:05:49;;;;;;;45.90;35.50;;;;;;;;;;5013835;28;20397;-85
2022/08/20 04:08:17;;;;;;;45.42;35.40;;;;;;;;;;5030811;28;20398;-85
2022/08/20 04:10:44;;;;;;;46.17;35.63;;;;;;;;;;5022689;28;20496;-85
2022/08/20 04:13:10;;;;;;;49.22;37.20;;;;;;;;;;5012924;28;20380;-84
2022/08/20 04:15:36;;;;;;;49.95;38.70;;;;;;;;;;5012816;28;20393;-85
2022/08/20 04:18:06;;;;;;;50.65;38.13;;;;;;;;;;5013603;28;20381;-85
2022/08/20 04:20:33;;;;;;;52.72;38.38;;;;;;;;;;5013778;28;20385;-85
2022/08/20 04:22:59;;;;;;;49.45;37.90;;;;;;;;;;5021177;28;20394;-84
2022/08/20 04:25:25;;;;;;;50.58;37.70;;;;;;;;;;5030773;28;20796;-86
2022/08/20 04:27:51;;;;;;;54.40;39.53;;;;;;;;;;5032020;28;20902;-84
2022/08/20 04:30:18;;;;;;;51.20;37.90;;;;;;;;;;5031915;28;20461;-84
2022/08/20 04:32:44;;;;;;;39.47;33.47;;;;;;;;;;5032256;28;20375;-85
2022/08/20 04:35:14;;;;;;;36.03;31.90;;;;;;;;;;5027775;28;20426;-85
2022/08/20 04:37:40;;;;;;;33.95;29.50;;;;;;;;;;5013447;28;20745;-85
2022/08/20 04:42:52;;;;;;;31.17;27.90;;;;;;;;;;5032312;28;20725;-86
2022/08/20 04:45:18;;;;;;;29.13;26.23;;;;;;;;;;5035659;28;20378;-85
2022/08/20 04:47:45;;;;;;;27.23;24.55;;;;;;;;;;5035848;28;20390;-85
2022/08/20 04:50:12;;;;;;;28.55;25.67;;;;;;;;;;5034520;28;20871;-85
2022/08/20 04:52:38;;;;;;;28.30;25.40;;;;;;;;;;5030795;28;20875;-85
2022/08/20 04:55:05;;;;;;;30.60;27.30;;;;;;;;;;5034380;28;20424;-85
2022/08/20 04:57:32;;;;;;;29.52;26.35;;;;;;;;;;5034805;28;20468;-85
2022/08/20 04:59:58;;;;;;;28.67;25.77;;;;;;;;;;5035703;28;20376;-84
2022/08/20 05:02:24;;;;;;;30.15;26.98;;;;;;;;;;5034529;28;20470;-84
2022/08/20 05:04:50;;;;;;;29.15;26.13;;;;;;;;;;5033538;28;20769;-84
2022/08/20 05:07:19;;;;;;;30.73;27.52;;;;;;;;;;5034305;28;20391;-84
2022/08/20 05:09:46;;;;;;;32.80;28.67;;;;;;;;;;5032719;28;20391;-85
2022/08/20 05:12:14;;;;;;;32.10;27.65;;;;;;;;;;5035153;28;20402;-84
2022/08/20 05:14:40;;;;;;;31.97;28.57;;;;;;;;;;5032966;28;20896;-84
2022/08/20 05:17:06;;;;;;;29.98;26.70;;;;;;;;;;5034009;28;20391;-86
2022/08/20 05:19:33;;;;;;;30.10;26.93;;;;;;;;;;5035168;28;20398;-85
2022/08/20 05:22:00;;;;;;;30.98;27.67;;;;;;;;;;5035476;28;20464;-85
2022/08/20 05:24:26;;;;;;;28.40;25.58;;;;;;;;;;5035082;28;20390;-85
2022/08/20 05:26:54;;;;;;;30.05;26.92;;;;;;;;;;5033360;28;20414;-85
2022/08/20 05:29:21;;;;;;;31.20;27.47;;;;;;;;;;5033630;28;20406;-85
2022/08/20 05:31:47;;;;;;;29.35;26.35;;;;;;;;;;5017815;28;20502;-86
2022/08/20 05:34:13;;;;;;;27.73;25.02;;;;;;;;;;5015034;28;20385;-85
2022/08/20 05:36:41;;;;;;;27.00;24.40;;;;;;;;;;5027302;28;20400;-85
2022/08/20 05:39:08;;;;;;;26.77;24.17;;;;;;;;;;5029289;28;20410;-85
2022/08/20 05:41:35;;;;;;;26.83;24.33;;;;;;;;;;5034664;28;20387;-84
2022/08/20 05:44:01;;;;;;;25.85;23.35;;;;;;;;;;5033392;28;20414;-85
2022/08/20 05:46:27;;;;;;;26.70;24.10;;;;;;;;;;5027637;28;20868;-84
2022/08/20 05:48:53;;;;;;;25.85;23.45;;;;;;;;;;5034554;28;20787;-86
2022/08/20 05:51:19;;;;;;;27.00;24.35;;;;;;;;;;5034691;28;20403;-87
2022/08/20 05:53:45;;;;;;;25.17;22.87;;;;;;;;;;5034280;28;20441;-85
2022/08/20 05:56:11;;;;;;;26.00;23.50;;;;;;;;;;5034528;28;20432;-86
2022/08/20 05:58:37;;;;;;;29.10;26.20;;;;;;;;;;5034221;28;20387;-85
2022/08/20 06:01:04;;;;;;;28.00;25.20;;;;;;;;;;5031243;28;20997;-85
2022/08/20 06:06:15;;;;;;;26.25;23.75;;;;;;;;;;5017496;28;21267;-85
2022/08/20 06:08:41;;;;;;;27.73;24.92;;;;;;;;;;5023408;28;20395;-84
2022/08/20 06:11:07;;;;;;;27.70;25.00;;;;;;;;;;5034459;28;20490;-85
2022/08/20 06:13:34;;;;;;;26.73;24.17;;;;;;;;;;5032312;28;20391;-87
2022/08/20 06:16:00;;;;;;;25.90;23.60;;;;;;;;;;5034407;28;20384;-87
2022/08/20 06:18:26;;;;;;;27.52;24.67;;;;;;;;;;5034183;28;20406;-86
2022/08/20 06:20:52;;;;;;;24.85;22.55;;;;;;;;;;5033982;28;20482;-85
2022/08/20 06:23:19;;;;;;;25.70;23.30;;;;;;;;;;5034335;28;20879;-86
2022/08/20 06:25:48;;;;;;;26.20;23.60;;;;;;;;;;5034416;28;20470;-86
2022/08/20 06:28:14;;;;;;;24.83;22.52;;;;;;;;;;5034180;28;20405;-87
2022/08/20 06:30:40;;;;;;;27.58;24.60;;;;;;;;;;5034601;28;20887;-86
2022/08/20 06:33:06;;;;;;;27.27;24.67;;;;;;;;;;5034961;28;20379;-86
2022/08/20 06:35:32;;;;;;;27.13;24.50;;;;;;;;;;5034719;28;20395;-84
2022/08/20 06:37:59;;;;;;;28.30;25.48;;;;;;;;;;5035097;28;20371;-85
2022/08/20 06:40:27;;;;;;;29.80;26.60;;;;;;;;;;5034436;28;20744;-87
2022/08/20 06:42:53;;;;;;;28.37;25.43;;;;;;;;;;5034059;28;20387;-86
2022/08/20 06:45:25;;;;;;;28.33;25.52;;;;;;;;;;5034122;28;20466;-86
2022/08/20 06:47:52;;;;;;;27.73;24.92;;;;;;;;;;5034429;28;20379;-87
2022/08/20 06:50:21;;;;;;;24.25;22.00;;;;;;;;;;5034039;28;20383;-86
2022/08/20 06:52:47;;;;;;;25.02;22.55;;;;;;;;;;5033477;28;20384;-87
2022/08/20 06:55:14;;;;;;;26.08;23.45;;;;;;;;;;5033425;28;20430;-85
2022/08/20 06:57:40;;;;;;;28.60;25.80;;;;;;;;;;5033452;28;20458;-85
2022/08/20 07:00:07;;;;;;;27.98;25.08;;;;;;;;;;5033348;28;20384;-85
2022/08/20 07:02:34;;;;;;;29.33;26.27;;;;;;;;;;5032831;28;20457;-86
2022/08/20 07:05:00;;;;;;;28.98;25.98;;;;;;;;;;5033271;28;20740;-83
2022/08/20 07:07:26;;;;;;;26.30;23.70;;;;;;;;;;5032482;28;20449;-84
2022/08/20 07:10:00;;;;;;;26.23;23.80;;;;;;;;;;5031812;28;20402;-83
2022/08/20 07:12:26;;;;;;;27.67;24.90;;;;;;;;;;5033026;28;20888;-85
2022/08/20 07:14:52;;;;;;;26.15;23.65;;;;;;;;;;5032748;28;20394;-84
2022/08/20 07:17:18;;;;;;;24.30;21.97;;;;;;;;;;5033141;28;20375;-87
2022/08/20 07:19:44;;;;;;;24.95;22.65;;;;;;;;;;5032940;28;20375;-85
2022/08/20 07:22:12;;;;;;;25.67;23.23;;;;;;;;;;5032927;28;20740;-86
2022/08/20 07:24:38;;;;;;;25.00;22.70;;;;;;;;;;5032807;28;20902;-85
2022/08/20 07:27:05;;;;;;;25.27;22.77;;;;;;;;;;5032997;28;20875;-84
2022/08/20 07:32:33;;;;;;;23.50;21.37;;;;;;;;;;5032978;28;20472;-82
2022/08/20 07:35:06;;;;;;;23.58;21.38;;;;;;;;;;5032666;28;20729;-86
2022/08/20 07:37:32;;;;;;;23.05;21.02;;;;;;;;;;5033047;28;20466;-86
2022/08/20 07:39:58;;;;;;;23.03;21.00;;;;;;;;;;5031666;28;20389;-86
2022/08/20 07:42:24;;;;;;;23.20;21.17;;;;;;;;;;5031724;28;20391;-86
2022/08/20 07:44:51;;;;;;;23.55;21.30;;;;;;;;;;5028779;28;20902;-87
2022/08/20 07:47:18;;;;;;;23.55;21.45;;;;;;;;;;5031828;28;20472;-86
2022/08/20 07:49:44;;;;;;;23.05;20.85;;;;;;;;;;5032330;28;20402;-87
2022/08/20 07:52:12;;;;;;;21.10;19.15;;;;;;;;;;5032470;28;20902;-86
2022/08/20 07:54:38;;;;;;;21.27;19.30;;;;;;;;;;5032281;28;20880;-85
2022/08/20 07:57:04;;;;;;;21.08;19.13;;;;;;;;;;5032483;28;20375;-83
2022/08/20 07:59:31;;;;;;;20.92;19.10;;;;;;;;;;5030755;28;20452;-83
2022/08/20 08:01:57;;;;;;;20.33;18.63;;;;;;;;;;5027962;28;20395;-86
2022/08/20 08:04:24;;;;;;;19.45;17.88;;;;;;;;;;5032223;28;20437;-88
2022/08/20 08:06:51;;;;;;;18.02;16.63;;;;;;;;;;5032180;28;20383;-88
2022/08/20 08:09:17;;;;;;;18.13;16.73;;;;;;;;;;5032527;28;20387;-87
2022/08/20 08:11:48;;;;;;;17.15;15.65;;;;;;;;;;5030532;28;20414;-88
2022/08/20 08:14:17;;;;;;;16.83;15.50;;;;;;;;;;5032863;28;20406;-87
2022/08/20 08:16:44;;;;;;;15.35;14.15;;;;;;;;;;5032227;28;20379;-87
2022/08/20 08:19:10;;;;;;;15.13;14.02;;;;;;;;;;5034175;28;20398;-88
2022/08/20 08:21:37;;;;;;;15.90;14.57;;;;;;;;;;5035748;28;20379;-88
2022/08/20 08:24:03;;;;;;;15.40;14.30;;;;;;;;;;5036411;28;20521;-87
2022/08/20 08:26:30;;;;;;;15.00;13.75;;;;;;;;;;5036281;28;20395;-86
2022/08/20 08:28:56;;;;;;;15.00;13.70;;;;;;;;;;5036404;28;20394;-85
2022/08/20 08:31:42;;;;;;;14.27;13.10;;;;;;;;;;5036013;28;20410;-84
2022/08/20 08:34:08;;;;;;;14.02;12.95;;;;;;;;;;5035218;28;20414;-85
2022/08/20 08:36:34;;;;;;;13.60;12.50;;;;;;;;;;5036105;28;20375;-85
2022/08/20 08:39:00;;;;;;;13.77;12.77;;;;;;;;;;5036100;28;20378;-85
2022/08/20 08:41:28;;;;;;;13.55;12.45;;;;;;;;;;5035856;28;20414;-90
2022/08/20 08:43:56;;;;;;;13.68;12.48;;;;;;;;;;5035777;28;20383;-85
2022/08/20 08:46:25;;;;;;;14.48;13.27;;;;;;;;;;5034890;28;20465;-84
2022/08/20 08:48:52;;;;;;;13.05;11.95;;;;;;;;;;5034698;28;20391;-81
2022/08/20 08:51:25;;;;;;;13.38;12.30;;;;;;;;;;5033987;28;20398;-85
2022/08/20 08:53:53;;;;;;;13.20;12.10;;;;;;;;;;5035760;28;20892;-84
2022/08/20 08:56:20;;;;;;;13.15;12.15;;;;;;;;;;5035728;28;20434;-86
2022/08/20 08:58:47;;;;;;;12.63;11.63;;;;;;;;;;5035685;28;20375;-85
2022/08/20 09:01:15;;;;;;;12.02;11.23;;;;;;;;;;5035502;28;20445;-85
2022/08/20 09:03:44;;;;;;;13.75;12.68;;;;;;;;;;5035520;28;20387;-84
2022/08/20 09:06:15;;;;;;;12.33;11.43;;;;;;;;;;5035481;28;20456;-87
2022/08/20 09:08:50;;;;;;;12.50;11.57;;;;;;;;;;5035698;28;20375;-85
2022/08/20 09:11:18;;;;;;;11.82;10.82;;;;;;;;;;5035461;28;20452;-88
2022/08/20 09:13:44;;;;;;;11.82;10.93;;;;;;;;;;5035833;28;20379;-88
2022/08/20 09:16:11;;;;;;;11.85;10.95;;;;;;;;;;5035824;28;20453;-88
2022/08/20 09:18:38;;;;;;;11.07;10.18;;;;;;;;;;5034982;28;20382;-87
2022/08/20 09:21:04;;;;;;;11.15;10.18;;;;;;;;;;5035616;28;20379;-88
2022/08/20 09:23:30;;;;;;;11.20;10.40;;;;;;;;;;5035165;28;20394;-89
2022/08/20 09:25:56;;;;;;;11.23;10.35;;;;;;;;;;5035486;28;20873;-86
2022/08/20 09:28:22;;;;;;;10.68;9.88;;;;;;;;;;5035138;28;20383;-86
2022/08/20 09:30:48;;;;;;;10.55;9.75;;;;;;;;;;5034417;28;20411;-86
2022/08/20 09:33:14;;;;;;;10.00;9.30;;;;;;;;;;5034934;28;20381;-85
2022/08/20 09:35:40;;;;;;;9.93;9.23;;;;;;;;;;5034562;28;20387;-86
2022/08/20 09:38:07;;;;;;;9.90;9.27;;;;;;;;;;5034905;28;20943;-87
2022/08/20 09:40:33;;;;;;;8.23;7.63;;;;;;;;;;5034739;28;20383;-86
2022/08/20 09:42:59;;;;;;;6.45;5.95;;;;;;;;;;5035722;28;20728;-88
2022/08/20 09:45:25;;;;;;;6.32;5.93;;;;;;;;;;5030698;28;20399;-88
2022/08/20 09:47:52;;;;;;;6.22;5.82;;;;;;;;;;5033766;28;20994;-87
2022/08/20 09:50:18;;;;;;;5.88;5.38;;;;;;;;;;5015667;28;20717;-88
2022/08/20 09:52:45;;;;;;;5.85;5.45;;;;;;;;;;5035574;28;20372;-88
2022/08/20 09:55:35;;;;;;;6.38;5.97;;;;;;;;;;5036955;28;20529;-88
2022/08/20 09:58:02;;;;;;;6.72;6.22;;;;;;;;;;5017034;28;20419;-86
2022/08/20 10:00:28;;;;;;;6.13;5.60;;;;;;;;;;5019435;28;20404;-86
2022/08/20 10:02:54;;;;;;;6.40;5.90;;;;;;;;;;5027762;28;20383;-85
2022/08/20 10:05:20;;;;;;;5.95;5.55;;;;;;;;;;5034185;28;20433;-85
2022/08/20 10:07:46;;;;;;;5.95;5.55;;;;;;;;;;5025326;28;20466;-86
2022/08/20 10:10:14;;;;;;;5.25;4.90;;;;;;;;;;5037509;28;20506;-85
2022/08/20 10:12:40;;;;;;;4.63;4.32;;;;;;;;;;5037106;28;20379;-81
2022/08/20 10:15:07;;;;;;;4.50;4.20;;;;;;;;;;5035716;28;20395;-82
2022/08/20 10:17:36;;;;;;;4.32;4.00;;;;;;;;;;5031184;28;20375;-86
2022/08/20 10:20:02;;;;;;;4.65;4.25;;;;;;;;;;5032578;28;20418;-82
2022/08/20 10:22:28;;;;;;;4.10;3.60;;;;;;;;;;5034578;28;20391;-82
2022/08/20 10:24:54;;;;;;;4.20;3.90;;;;;;;;;;5030696;28;20391;-82
2022/08/20 10:27:21;;;;;;;4.88;3.63;;;;;;;;;;5033630;28;20440;-83
2022/08/20 10:29:47;;;;;;;4.10;3.58;;;;;;;;;;5035712;28;20379;-83
2022/08/20 10:32:14;;;;;;;3.83;3.50;;;;;;;;;;5031206;28;20525;-83
2022/08/20 10:34:41;;;;;;;3.80;3.60;;;;;;;;;;5034510;28;20747;-82
2022/08/20 10:37:08;;;;;;;3.42;3.22;;;;;;;;;;5033963;28;20422;-83
2022/08/20 10:39:34;;;;;;;3.53;3.33;;;;;;;;;;5033609;28;20433;-82
2022/08/20 10:42:00;;;;;;;3.30;3.10;;;;;;;;;;5032458;28;20418;-82
2022/08/20 10:44:26;;;;;;;3.15;2.95;;;;;;;;;;5032444;28;20391;-81
2022/08/20 10:46:52;;;;;;;3.10;2.90;;;;;;;;;;5032934;28;20880;-82
2022/08/20 10:49:18;;;;;;;2.78;2.58;;;;;;;;;;5033402;28;20418;-82
2022/08/20 10:51:44;;;;;;;2.83;2.50;;;;;;;;;;5028025;28;20410;-80
2022/08/20 10:54:10;;;;;;;2.67;2.47;;;;;;;;;;5021761;28;20886;-82
2022/08/20 10:56:36;;;;;;;2.50;2.30;;;;;;;;;;5022709;28;20416;-82
2022/08/20 10:59:02;;;;;;;2.67;2.50;;;;;;;;;;5032668;28;20501;-84
2022/08/20 11:01:28;;;;;;;2.70;2.50;;;;;;;;;;5030833;28;20441;-82
2022/08/20 11:03:54;;;;;;;2.40;2.20;;;;;;;;;;5015449;28;20446;-81
2022/08/20 11:06:21;;;;;;;1.85;1.75;;;;;;;;;;5025718;28;20466;-82
2022/08/20 11:08:47;;;;;;;1.90;1.80;;;;;;;;;;5028241;28;20392;-82
2022/08/20 11:11:13;;;;;;;1.77;1.67;;;;;;;;;;5013256;28;20412;-82
2022/08/20 11:13:39;;;;;;;1.83;1.73;;;;;;;;;;5012968;28;20429;-81
2022/08/20 11:16:05;;;;;;;2.40;1.58;;;;;;;;;;5028051;28;20541;-82
2022/08/20 11:18:31;;;;;;;1.63;1.40;;;;;;;;;;5031916;28;20379;-82
2022/08/20 11:20:57;;;;;;;1.20;1.20;;;;;;;;;;5013160;28;20381;-82
2022/08/20 11:23:23;;;;;;;1.20;1.20;;;;;;;;;;5018518;28;20391;-83
2022/08/20 11:25:50;;;;;;;1.13;1.13;;;;;;;;;;5030814;28;20383;-82
2022/08/20 11:28:16;;;;;;;1.60;1.50;;;;;;;;;;5031076;28;20387;-81
2022/08/20 11:30:42;;;;;;;1.45;1.30;;;;;;;;;;5031400;28;20411;-81
2022/08/20 11:33:08;;;;;;;1.42;1.33;;;;;;;;;;5030570;28;21047;-84
2022/08/20 11:35:35;;;;;;;1.50;1.40;;;;;;;;;;5031191;28;20398;-85
2022/08/20 11:38:01;;;;;;;1.55;1.20;;;;;;;;;;5032320;28;20387;-85
2022/08/20 11:40:28;;;;;;;1.08;1.00;;;;;;;;;;5032719;28;20379;-83
2022/08/20 11:42:54;;;;;;;1.13;1.08;;;;;;;;;;5031315;28;20383;-84
2022/08/20 11:45:20;;;;;;;1.00;1.00;;;;;;;;;;5032431;28;20415;-83
2022/08/20 11:47:46;;;;;;;0.73;0.73;;;;;;;;;;5032072;28;20379;-86
2022/08/20 11:50:16;;;;;;;0.98;0.98;;;;;;;;;;5032697;28;20385;-85
2022/08/20 11:52:43;;;;;;;1.45;1.20;;;;;;;;;;5032289;28;20398;-85
2022/08/20 11:55:11;;;;;;;1.08;0.93;;;;;;;;;;5032422;28;20380;-84
2022/08/20 11:57:40;;;;;;;1.35;1.20;;;;;;;;;;5032421;28;20870;-85
2022/08/20 12:00:09;;;;;;;0.90;0.90;;;;;;;;;;5032356;28;20387;-85
2022/08/20 12:02:36;;;;;;;1.10;0.90;;;;;;;;;;5032481;28;20821;-84
2022/08/20 12:05:02;;;;;;;0.90;0.90;;;;;;;;;;5032031;28;20391;-85
2022/08/20 12:07:28;;;;;;;0.90;0.90;;;;;;;;;;5031281;28;20807;-87
2022/08/20 12:09:54;;;;;;;0.70;0.70;;;;;;;;;;5031417;28;20449;-86
2022/08/20 12:12:22;;;;;;;0.73;0.73;;;;;;;;;;5031586;28;20844;-87
2022/08/20 12:14:49;;;;;;;2.87;0.90;;;;;;;;;;5028986;28;20423;-86
2022/08/20 12:17:18;;;;;;;0.80;0.80;;;;;;;;;;5032403;28;20458;-85
2022/08/20 12:19:45;;;;;;;0.87;0.80;;;;;;;;;;5029712;28;20882;-86
2022/08/20 12:22:11;;;;;;;1.10;0.60;;;;;;;;;;5030668;28;20427;-86
2022/08/20 12:24:37;;;;;;;0.70;0.70;;;;;;;;;;5031449;28;20860;-86
2022/08/20 12:27:10;;;;;;;0.90;0.90;;;;;;;;;;5032047;28;20396;-87
2022/08/20 12:29:37;;;;;;;0.80;0.70;;;;;;;;;;5032741;28;20438;-86
2022/08/20 12:32:05;;;;;;;0.60;0.60;;;;;;;;;;5032021;28;20407;-87
2022/08/20 12:34:32;;;;;;;0.57;0.57;;;;;;;;;;5031573;28;20391;-86
2022/08/20 12:37:05;;;;;;;0.50;0.50;;;;;;;;;;5032916;28;20379;-87
2022/08/20 12:39:33;;;;;;;0.77;0.77;;;;;;;;;;5032178;28;20861;-86
2022/08/20 12:42:01;;;;;;;1.13;0.60;;;;;;;;;;5032292;28;20387;-87
2022/08/20 12:44:27;;;;;;;0.57;0.50;;;;;;;;;;5032052;28;20749;-86
2022/08/20 12:47:04;;;;;;;0.40;0.40;;;;;;;;;;5032021;28;20387;-87
2022/08/20 12:49:30;;;;;;;0.40;0.40;;;;;;;;;;5032013;28;20382;-86
2022/08/20 12:51:56;;;;;;;0.40;0.40;;;;;;;;;;5031241;28;20403;-86
2022/08/20 12:54:22;;;;;;;0.73;0.50;;;;;;;;;;5032137;28;20433;-86
2022/08/20 12:56:50;;;;;;;1.55;0.40;;;;;;;;;;5032194;28;20375;-90
2022/08/20 12:59:16;;;;;;;1.70;0.47;;;;;;;;;;5030811;28;20895;-88
2022/08/20 13:01:42;;;;;;;1.33;0.73;;;;;;;;;;5030567;28;21013;-86
2022/08/20 13:04:08;;;;;;;1.30;1.20;;;;;;;;;;5032920;28;20387;-86
2022/08/20 13:06:35;;;;;;;2.63;1.60;;;;;;;;;;5020555;28;20397;-86
2022/08/20 13:09:03;;;;;;;3.30;1.80;;;;;;;;;;5017066;28;20431;-87
2022/08/20 13:11:29;;;;;;;4.35;2.83;;;;;;;;;;5028884;28;20407;-86
2022/08/20 13:13:55;;;;;;;7.50;2.67;;;;;;;;;;5025558;28;20384;-87
2022/08/20 13:16:21;;;;;;;3.40;1.92;;;;;;;;;;5030732;28;20762;-88
2022/08/20 13:18:47;;;;;;;3.72;1.90;;;;;;;;;;5027281;28;20420;-89
2022/08/20 13:21:13;;;;;;;1.42;1.27;;;;;;;;;;5036262;28;20391;-88
2022/08/20 13:23:39;;;;;;;3.10;1.50;;;;;;;;;;5032057;28;20400;-89
2022/08/20 13:26:05;;;;;;;3.80;1.70;;;;;;;;;;5016290;28;20766;-91
2022/08/20 13:28:31;;;;;;;3.22;1.58;;;;;;;;;;5029309;28;20887;-89
2022/08/20 13:30:57;;;;;;;2.88;1.50;;;;;;;;;;5024191;28;20404;-89
2022/08/20 13:33:25;;;;;;;2.60;1.30;;;;;;;;;;5015783;28;20388;-89
2022/08/20 13:35:51;;;;;;;2.20;1.33;;;;;;;;;;5035697;28;20407;-89
2022/08/20 13:38:17;;;;;;;1.23;1.00;;;;;;;;;;5036093;28;20415;-89
2022/08/20 13:40:43;;;;;;;1.17;0.93;;;;;;;;;;5035270;28;20418;-88
2022/08/20 13:43:10;;;;;;;0.80;0.73;;;;;;;;;;5035537;28;20737;-89
2022/08/20 13:45:36;;;;;;;0.70;0.57;;;;;;;;;;5036224;28;20382;-89
2022/08/20 13:48:03;;;;;;;0.95;0.68;;;;;;;;;;5035624;28;20376;-90
2022/08/20 13:50:29;;;;;;;1.38;0.60;;;;;;;;;;5035359;28;20481;-89
2022/08/20 13:52:55;;;;;;;1.50;0.70;;;;;;;;;;5033974;28;20518;-89
2022/08/20 13:55:22;;;;;;;0.80;0.80;;;;;;;;;;5035302;28;20864;-88
2022/08/20 13:57:49;;;;;;;1.10;1.00;;;;;;;;;;5030861;28;20381;-88
2022/08/20 14:00:16;;;;;;;1.90;0.90;;;;;;;;;;4997715;28;20381;-89
2022/08/20 14:02:43;;;;;;;0.60;0.60;;;;;;;;;;5015046;28;20381;-89
2022/08/20 14:05:09;;;;;;;1.40;0.85;;;;;;;;;;5014660;28;20384;-87
2022/08/20 14:07:35;;;;;;;1.50;0.65;;;;;;;;;;5024647;28;20413;-89
2022/08/20 14:10:04;;;;;;;1.27;0.70;;;;;;;;;;5038355;28;20390;-90
2022/08/20 14:12:30;;;;;;;0.80;0.70;;;;;;;;;;5035099;28;20435;-89
2022/08/20 14:14:56;;;;;;;1.10;0.70;;;;;;;;;;5033034;28;20453;-85
2022/08/20 14:17:25;;;;;;;0.60;0.60;;;;;;;;;;5014605;28;20793;-88
2022/08/20 14:19:53;;;;;;;0.63;0.50;;;;;;;;;;5034276;28;20391;-85
2022/08/20 14:22:19;;;;;;;0.55;0.55;;;;;;;;;;5032161;28;20395;-86
2022/08/20 14:24:46;;;;;;;1.30;0.70;;;;;;;;;;5033690;28;20441;-84
2022/08/20 14:27:12;;;;;;;0.60;0.40;;;;;;;;;;5034057;28;20498;-84
2022/08/20 14:29:39;;;;;;;0.40;0.40;;;;;;;;;;5034057;28;20405;-85
2022/08/20 14:32:06;;;;;;;0.80;0.45;;;;;;;;;;5032775;28;20411;-87
2022/08/20 14:34:32;;;;;;;0.40;0.40;;;;;;;;;;5032757;28;20387;-85